Time;durP1;ratioP1;P1;durP2;ratioP2;P2;SDS_P1;SDS_P2;PMS_P1;PMS_P2;Temp;Humidity;BMP_temperature;BMP_pressure;BME280_temperature;BME280_humidity;BME280_pressure;Samples;Min_cycle;Max_cycle;Signal;HPM_P1;HPM_P2
2022/05/01 00:01:49;;;;;;;9.00;5.80;;;10.90;1.00;;;;;;5062014;28;20496;-79
2022/05/01 00:04:19;;;;;;;8.90;5.77;;;10.90;1.00;;;;;;5086883;28;20222;-79
2022/05/01 00:07:00;;;;;;;7.23;6.10;;;10.90;1.00;;;;;;5074224;28;20407;-79
2022/05/01 00:09:31;;;;;;;16.67;6.53;;;10.90;1.00;;;;;;5072999;28;20525;-79
2022/05/01 00:12:13;;;;;;;11.50;7.03;;;10.90;1.00;;;;;;5074238;28;20911;-80
2022/05/01 00:14:44;;;;;;;6.60;6.00;;;10.90;1.00;;;;;;5054348;28;20421;-80
2022/05/01 00:17:09;;;;;;;13.80;6.23;;;11.00;1.00;;;;;;5065050;28;20413;-79
2022/05/01 00:20:01;;;;;;;9.80;5.63;;;10.90;1.00;;;;;;5074458;28;20401;-79
2022/05/01 00:22:32;;;;;;;26.43;6.17;;;10.90;1.00;;;;;;5072802;28;20187;-80
2022/05/01 00:25:43;;;;;;;10.60;5.77;;;10.90;1.00;;;;;;5074143;28;20563;-80
2022/05/01 00:28:20;;;;;;;18.80;6.10;;;10.90;1.00;;;;;;5070567;28;20435;-80
2022/05/01 00:30:46;;;;;;;8.33;5.97;;;10.90;1.00;;;;;;5073925;28;20389;-80
2022/05/01 00:39:04;;;;;;;7.60;5.90;;;10.90;1.00;;;;;;5054015;28;20368;-79
2022/05/01 00:41:36;;;;;;;8.90;5.80;;;10.90;1.00;;;;;;5053513;28;20963;-79
2022/05/01 00:44:16;;;;;;;9.30;6.80;;;10.90;1.00;;;;;;5064004;28;20421;-79
2022/05/01 00:47:13;;;;;;;8.03;6.60;;;10.90;1.00;;;;;;5072862;28;20429;-80
2022/05/01 00:49:43;;;;;;;11.70;6.77;;;10.90;1.00;;;;;;5074145;28;20435;-80
2022/05/01 00:52:10;;;;;;;7.67;5.93;;;10.90;1.00;;;;;;5073772;28;20380;-80
2022/05/01 00:54:42;;;;;;;8.60;6.50;;;11.00;1.00;;;;;;5073294;28;20388;-80
2022/05/01 00:57:14;;;;;;;9.63;7.30;;;11.00;1.00;;;;;;5066194;28;20400;-80
2022/05/01 00:59:55;;;;;;;8.27;6.50;;;11.00;1.00;;;;;;5073511;28;20406;-80
2022/05/01 01:02:26;;;;;;;14.90;7.20;;;11.00;1.00;;;;;;5072863;28;20400;-80
2022/05/01 01:04:56;;;;;;;10.63;6.83;;;11.00;1.00;;;;;;5072444;28;20421;-80
2022/05/01 01:08:02;;;;;;;8.37;6.30;;;11.00;1.00;;;;;;5073403;28;20404;-80
2022/05/01 01:10:28;;;;;;;11.37;6.63;;;11.00;1.00;;;;;;5073625;28;20432;-80
2022/05/01 01:13:26;;;;;;;13.43;6.77;;;10.90;1.00;;;;;;5073556;28;20447;-80
2022/05/01 01:16:09;;;;;;;10.80;6.77;;;10.90;1.00;;;;;;5071974;28;20417;-80
2022/05/01 01:18:39;;;;;;;11.30;6.73;;;10.90;1.00;;;;;;5072811;28;20383;-80
2022/05/01 01:21:07;;;;;;;10.70;7.60;;;10.90;1.00;;;;;;5053783;28;20423;-79
2022/05/01 01:23:57;;;;;;;14.00;7.33;;;10.90;1.00;;;;;;5068228;28;20471;-79
2022/05/01 01:26:34;;;;;;;18.80;6.90;;;10.90;1.00;;;;;;5061429;28;20424;-80
2022/05/01 01:32:26;;;;;;;12.37;7.73;;;10.90;1.00;;;;;;5072612;28;20798;-80
2022/05/01 01:34:58;;;;;;;12.83;6.93;;;10.90;1.00;;;;;;5073722;28;20363;-80
2022/05/01 01:37:37;;;;;;;15.70;6.97;;;10.90;1.00;;;;;;5073216;28;20425;-79
2022/05/01 01:40:04;;;;;;;10.83;7.17;;;10.80;1.00;;;;;;5073249;28;20416;-79
2022/05/01 01:42:34;;;;;;;11.53;7.10;;;10.80;1.00;;;;;;5072769;28;20391;-79
2022/05/01 01:45:02;;;;;;;15.07;7.50;;;10.90;1.00;;;;;;5072874;28;20496;-79
2022/05/01 01:47:27;;;;;;;8.50;6.90;;;10.80;1.00;;;;;;5061087;28;20425;-79
2022/05/01 01:50:25;;;;;;;8.73;6.93;;;10.90;1.00;;;;;;5071683;28;20796;-80
2022/05/01 01:52:55;;;;;;;13.47;7.80;;;10.80;1.00;;;;;;5056940;28;20160;-80
2022/05/01 01:55:32;;;;;;;13.80;6.80;;;10.80;1.00;;;;;;5056725;28;20388;-80
2022/05/01 01:58:01;;;;;;;12.00;6.53;;;10.80;1.00;;;;;;5056926;28;20849;-80
2022/05/01 02:00:32;;;;;;;10.37;7.00;;;10.90;1.00;;;;;;5075844;28;20405;-80
2022/05/01 02:03:04;;;;;;;12.60;8.17;;;10.80;1.00;;;;;;5076529;28;20402;-80
2022/05/01 02:05:34;;;;;;;9.20;7.20;;;10.80;1.00;;;;;;5076200;28;20416;-80
2022/05/01 02:08:02;;;;;;;16.77;7.17;;;10.80;1.00;;;;;;5057279;28;20887;-80
2022/05/01 02:10:55;;;;;;;11.20;7.43;;;10.80;1.00;;;;;;5076722;28;20917;-80
2022/05/01 02:13:32;;;;;;;14.07;7.53;;;10.80;1.00;;;;;;5076793;28;20397;-80
2022/05/01 02:16:02;;;;;;;8.80;6.23;;;10.80;1.00;;;;;;5067136;28;20408;-80
2022/05/01 02:18:31;;;;;;;9.00;6.87;;;10.80;1.00;;;;;;5076366;28;20411;-80
2022/05/01 02:24:07;;;;;;;12.30;6.63;;;10.80;1.00;;;;;;5072789;28;20417;-79
2022/05/01 02:26:38;;;;;;;12.17;6.80;;;10.80;1.00;;;;;;5067595;28;20805;-80
2022/05/01 02:29:10;;;;;;;7.47;6.30;;;10.80;1.00;;;;;;5076244;28;20525;-81
2022/05/01 02:32:01;;;;;;;10.60;7.03;;;10.80;1.00;;;;;;5056456;28;20402;-79
2022/05/01 02:34:27;;;;;;;10.93;6.90;;;10.70;1.00;;;;;;5059894;28;20392;-80
2022/05/01 02:36:53;;;;;;;13.03;7.93;;;10.70;1.00;;;;;;5055567;28;20389;-79
2022/05/01 02:39:20;;;;;;;9.47;6.73;;;10.70;1.00;;;;;;5066014;28;20187;-80
2022/05/01 02:41:50;;;;;;;10.40;6.30;;;10.70;1.00;;;;;;5076001;28;20559;-80
2022/05/01 02:44:16;;;;;;;10.50;7.30;;;10.70;1.00;;;;;;5063162;28;20401;-80
2022/05/01 02:46:42;;;;;;;10.20;7.30;;;10.70;1.00;;;;;;5067053;28;20421;-80
2022/05/01 02:49:20;;;;;;;14.77;6.90;;;10.70;1.00;;;;;;5064377;28;20432;-80
2022/05/01 02:51:56;;;;;;;11.77;7.30;;;10.70;1.00;;;;;;5071735;28;20172;-80
2022/05/01 02:54:32;;;;;;;10.60;6.40;;;10.60;1.00;;;;;;5057165;28;20413;-80
2022/05/01 02:57:02;;;;;;;9.43;6.90;;;10.60;1.00;;;;;;5074210;28;20479;-80
2022/05/01 02:59:32;;;;;;;9.80;6.83;;;10.60;1.00;;;;;;5075661;28;20732;-80
2022/05/01 03:02:08;;;;;;;9.93;6.40;;;10.50;1.00;;;;;;5075456;28;20904;-80
2022/05/01 03:04:38;;;;;;;12.70;7.33;;;10.50;1.00;;;;;;5071681;28;20829;-80
2022/05/01 03:07:20;;;;;;;9.07;6.57;;;10.50;1.00;;;;;;5061767;28;20384;-80
2022/05/01 03:09:55;;;;;;;17.23;7.20;;;10.60;1.00;;;;;;5061446;28;21040;-80
2022/05/01 03:12:38;;;;;;;8.80;6.60;;;10.60;1.00;;;;;;5073993;28;20419;-80
2022/05/01 03:15:08;;;;;;;9.17;6.67;;;10.50;1.00;;;;;;5068261;28;20388;-80
2022/05/01 03:23:32;;;;;;;9.47;6.27;;;10.60;1.00;;;;;;5075609;28;20886;-80
2022/05/01 03:26:18;;;;;;;10.20;6.40;;;10.60;1.00;;;;;;5061014;28;20450;-80
2022/05/01 03:28:45;;;;;;;7.70;6.13;;;10.60;1.00;;;;;;5073525;28;20445;-80
2022/05/01 03:31:45;;;;;;;13.90;6.40;;;10.60;1.00;;;;;;5090889;28;20402;-80
2022/05/01 03:34:26;;;;;;;13.97;6.63;;;10.60;1.00;;;;;;5072439;28;20405;-80
2022/05/01 03:37:02;;;;;;;8.53;6.30;;;10.60;1.00;;;;;;5056555;28;20405;-80
2022/05/01 03:39:37;;;;;;;15.80;7.87;;;10.60;1.00;;;;;;5073716;28;20920;-80
2022/05/01 03:42:04;;;;;;;9.73;7.33;;;10.60;1.00;;;;;;5062220;28;20866;-80
2022/05/01 03:45:19;;;;;;;9.03;6.90;;;10.50;1.00;;;;;;5074508;28;20375;-80
2022/05/01 03:47:50;;;;;;;11.70;7.20;;;10.60;1.00;;;;;;5068427;28;20958;-80
2022/05/01 03:50:55;;;;;;;11.73;7.33;;;10.60;1.00;;;;;;5059449;28;20400;-80
2022/05/01 03:53:32;;;;;;;9.83;6.77;;;10.60;1.00;;;;;;5054785;28;20359;-80
2022/05/01 03:55:58;;;;;;;13.33;8.07;;;10.60;1.00;;;;;;5059451;28;20442;-80
2022/05/01 03:58:43;;;;;;;8.30;6.77;;;10.60;1.00;;;;;;5062019;28;20380;-80
2022/05/01 04:01:14;;;;;;;9.80;6.73;;;10.60;1.00;;;;;;5074562;28;20377;-80
2022/05/01 04:04:01;;;;;;;11.80;7.47;;;10.60;1.00;;;;;;5074250;28;20893;-80
2022/05/01 04:06:27;;;;;;;17.53;7.70;;;10.60;1.00;;;;;;5074782;28;20496;-80
2022/05/01 04:09:13;;;;;;;11.23;7.57;;;10.60;1.00;;;;;;5072280;28;20549;-80
2022/05/01 04:11:56;;;;;;;17.90;7.60;;;10.60;1.00;;;;;;5074180;28;20198;-80
2022/05/01 04:14:26;;;;;;;11.20;7.67;;;10.60;1.00;;;;;;5072799;28;20882;-80
2022/05/01 04:17:08;;;;;;;12.10;7.40;;;10.60;1.00;;;;;;5074487;28;20390;-80
2022/05/01 04:20:02;;;;;;;11.97;7.30;;;10.70;1.00;;;;;;5073557;28;20391;-80
2022/05/01 04:22:48;;;;;;;16.13;7.50;;;10.70;1.00;;;;;;5074481;28;20431;-80
2022/05/01 04:25:33;;;;;;;13.43;7.50;;;10.70;1.00;;;;;;5073844;28;20439;-80
2022/05/01 04:28:25;;;;;;;10.90;7.33;;;10.70;1.00;;;;;;5074069;28;20380;-80
2022/05/01 04:31:02;;;;;;;11.27;7.27;;;10.70;1.00;;;;;;5072711;28;20395;-80
2022/05/01 04:34:07;;;;;;;10.83;7.67;;;10.70;1.00;;;;;;5089729;28;20409;-80
2022/05/01 04:36:55;;;;;;;9.50;7.23;;;10.80;1.00;;;;;;5092735;28;20833;-80
2022/05/01 04:39:26;;;;;;;17.67;7.83;;;10.80;1.00;;;;;;5056495;28;20433;-80
2022/05/01 04:42:02;;;;;;;11.00;7.77;;;10.80;1.00;;;;;;5072940;28;20384;-80
2022/05/01 04:45:13;;;;;;;20.37;7.67;;;10.90;1.00;;;;;;5073659;28;20421;-79
2022/05/01 04:47:51;;;;;;;10.20;7.43;;;10.80;1.00;;;;;;5073791;28;20420;-80
2022/05/01 04:50:20;;;;;;;12.33;7.83;;;10.80;1.00;;;;;;5068105;28;20436;-79
2022/05/01 04:52:56;;;;;;;10.67;7.83;;;10.80;1.00;;;;;;5074171;28;20496;-80
2022/05/01 04:55:32;;;;;;;9.60;7.70;;;10.90;1.00;;;;;;5072276;28;20387;-80
2022/05/01 04:58:15;;;;;;;10.73;7.50;;;10.90;1.00;;;;;;5073695;28;20409;-80
2022/05/01 05:00:50;;;;;;;12.70;7.37;;;11.00;1.00;;;;;;5071023;28;20383;-80
2022/05/01 05:03:38;;;;;;;9.70;8.10;;;11.00;1.00;;;;;;5073486;28;20387;-80
2022/05/01 05:06:03;;;;;;;14.27;7.80;;;11.10;1.00;;;;;;5070713;28;20380;-71
2022/05/01 05:11:18;;;;;;;11.43;8.00;;;11.20;1.00;;;;;;5071750;28;20228;-78
2022/05/01 05:14:19;;;;;;;16.80;8.37;;;11.30;1.00;;;;;;5073357;28;20903;-78
2022/05/01 05:16:57;;;;;;;13.67;7.60;;;11.40;1.00;;;;;;5073290;28;20424;-77
2022/05/01 05:19:26;;;;;;;16.37;7.90;;;11.40;1.00;;;;;;5060549;28;20391;-77
2022/05/01 05:22:03;;;;;;;14.30;8.33;;;11.40;1.00;;;;;;5089283;28;20427;-78
2022/05/01 05:24:29;;;;;;;13.30;7.73;;;11.50;1.00;;;;;;5074090;28;20820;-79
2022/05/01 05:26:57;;;;;;;11.10;7.33;;;11.50;1.00;;;;;;5075697;28;20399;-77
2022/05/01 05:29:26;;;;;;;10.33;7.50;;;11.50;1.00;;;;;;5075985;28;20802;-81
2022/05/01 05:31:56;;;;;;;15.93;7.30;;;11.60;1.00;;;;;;5077586;28;20413;-82
2022/05/01 05:34:38;;;;;;;12.00;8.00;;;11.60;1.00;;;;;;5077734;28;20391;-85
2022/05/01 05:37:20;;;;;;;11.20;7.27;;;11.70;99.90;;;;;;5075511;28;20424;-84
2022/05/01 05:39:50;;;;;;;11.33;7.60;;;11.80;99.90;;;;;;5076532;28;20453;-79
2022/05/01 05:42:20;;;;;;;16.90;8.20;;;11.70;99.90;;;;;;5077352;28;20397;-79
2022/05/01 05:44:56;;;;;;;11.23;6.97;;;11.80;99.90;;;;;;5075976;28;20931;-80
2022/05/01 05:47:21;;;;;;;10.20;7.60;;;11.90;99.90;;;;;;5074481;28;20506;-74
2022/05/01 05:50:02;;;;;;;8.37;7.20;;;12.00;99.90;;;;;;5071775;28;21032;-74
2022/05/01 05:52:27;;;;;;;8.93;6.90;;;12.00;99.90;;;;;;5075792;28;20187;-71
2022/05/01 05:54:53;;;;;;;12.77;7.60;;;12.10;99.90;;;;;;5076793;28;20420;-70
2022/05/01 05:57:19;;;;;;;11.30;7.60;;;12.20;99.90;;;;;;5076534;28;20201;-70
2022/05/01 05:59:44;;;;;;;7.63;6.47;;;12.30;99.90;;;;;;5075191;28;20199;-70
2022/05/01 06:02:10;;;;;;;11.13;7.10;;;12.40;99.90;;;;;;5076727;28;20270;-70
2022/05/01 06:04:37;;;;;;;8.83;6.77;;;12.60;99.90;;;;;;5065722;28;20234;-70
2022/05/01 06:07:03;;;;;;;6.93;6.23;;;12.70;99.90;;;;;;5063229;28;20183;-71
2022/05/01 06:09:38;;;;;;;8.40;6.90;;;12.80;99.90;;;;;;5068842;28;20517;-85
2022/05/01 06:12:04;;;;;;;24.43;7.50;;;12.90;99.90;;;;;;5076316;28;20889;-70
2022/05/01 06:14:29;;;;;;;12.03;6.63;;;13.00;99.90;;;;;;5074290;28;20400;-70
2022/05/01 06:16:55;;;;;;;11.90;7.03;;;13.10;99.90;;;;;;5075709;28;20441;-70
2022/05/01 06:19:21;;;;;;;9.40;6.90;;;13.10;99.90;;;;;;5074331;28;20183;-70
2022/05/01 06:21:46;;;;;;;12.90;6.73;;;13.10;99.90;;;;;;5066265;28;20211;-70
2022/05/01 06:24:29;;;;;;;7.80;6.40;;;13.10;99.90;;;;;;5065264;28;20198;-77
2022/05/01 06:26:56;;;;;;;12.03;6.87;;;13.10;99.90;;;;;;5076582;28;20151;-78
2022/05/01 06:29:38;;;;;;;8.33;6.87;;;13.10;99.90;;;;;;5076420;28;20850;-78
2022/05/01 06:32:04;;;;;;;10.27;6.60;;;13.10;99.90;;;;;;5069193;28;20376;-78
2022/05/01 06:34:38;;;;;;;11.00;6.80;;;13.10;99.90;;;;;;5062033;28;20399;-80
2022/05/01 06:37:20;;;;;;;7.23;6.17;;;13.00;99.90;;;;;;5054777;28;20403;-80
2022/05/01 06:39:45;;;;;;;11.23;7.10;;;13.10;99.90;;;;;;5076226;28;20762;-80
2022/05/01 06:42:12;;;;;;;10.07;7.03;;;13.10;99.90;;;;;;5074891;28;20485;-69
2022/05/01 06:44:37;;;;;;;9.43;6.10;;;13.20;99.90;;;;;;5070666;28;20547;-75
2022/05/01 06:47:20;;;;;;;11.87;7.33;;;13.30;99.90;;;;;;5072405;28;20423;-76
2022/05/01 06:49:50;;;;;;;8.03;6.00;;;13.40;99.90;;;;;;5058669;28;20209;-76
2022/05/01 06:52:25;;;;;;;9.23;5.97;;;13.50;99.90;;;;;;5057345;28;20393;-76
2022/05/01 06:54:52;;;;;;;7.17;6.30;;;13.70;99.90;;;;;;5070892;28;20395;-76
2022/05/01 06:57:19;;;;;;;8.10;6.10;;;13.90;99.90;;;;;;5076165;28;20397;-76
2022/05/01 06:59:50;;;;;;;8.07;6.50;;;14.00;99.90;;;;;;5074922;28;20429;-76
2022/05/01 07:02:43;;;;;;;8.60;6.53;;;14.20;99.90;;;;;;5055868;28;20380;-76
2022/05/01 07:05:09;;;;;;;8.43;6.23;;;14.30;99.90;;;;;;5073354;28;20417;-75
2022/05/01 07:07:44;;;;;;;8.23;6.20;;;14.50;99.90;;;;;;5075840;28;20411;-77
2022/05/01 07:10:14;;;;;;;10.90;5.80;;;14.80;99.90;;;;;;5075470;28;20202;-77
2022/05/01 07:12:39;;;;;;;6.90;6.10;;;14.80;99.90;;;;;;5075244;28;20411;-78
2022/05/01 07:15:20;;;;;;;10.50;6.67;;;14.90;99.90;;;;;;5074945;28;20444;-78
2022/05/01 07:17:46;;;;;;;14.07;7.10;;;15.10;99.90;;;;;;5067666;28;20179;-77
2022/05/01 07:20:14;;;;;;;12.67;6.33;;;15.20;99.90;;;;;;5075040;28;20392;-78
2022/05/01 07:22:45;;;;;;;8.00;6.23;;;15.30;99.90;;;;;;5075512;28;20289;-77
2022/05/01 07:25:14;;;;;;;8.20;6.57;;;15.50;99.90;;;;;;5075430;28;20781;-76
2022/05/01 07:27:50;;;;;;;9.40;6.50;;;15.60;99.90;;;;;;5075468;28;20488;-76
2022/05/01 07:30:26;;;;;;;9.93;7.10;;;15.70;99.90;;;;;;5075664;28;20464;-76
2022/05/01 07:32:52;;;;;;;13.60;7.10;;;15.80;99.90;;;;;;5075633;28;20393;-76
2022/05/01 07:35:20;;;;;;;10.83;6.33;;;15.90;99.90;;;;;;5075263;28;20963;-76
2022/05/01 07:37:53;;;;;;;15.50;6.30;;;16.00;99.90;;;;;;5075402;28;20241;-76
2022/05/01 07:40:24;;;;;;;11.57;7.20;;;16.10;99.90;;;;;;5074760;28;20475;-75
2022/05/01 07:42:51;;;;;;;11.80;6.93;;;16.30;99.90;;;;;;5080147;28;20456;-76
2022/05/01 07:45:18;;;;;;;11.33;6.90;;;16.60;99.90;;;;;;5073385;28;20904;-75
2022/05/01 07:47:43;;;;;;;11.40;7.13;;;16.70;99.90;;;;;;5069478;28;20520;-75
2022/05/01 07:50:14;;;;;;;11.20;7.13;;;16.60;99.90;;;;;;5072896;28;21117;-80
2022/05/01 07:53:08;;;;;;;9.20;6.87;;;16.50;99.90;;;;;;5074554;28;20267;-80
2022/05/01 07:55:38;;;;;;;11.80;6.97;;;16.30;99.90;;;;;;5073295;28;20437;-78
2022/05/01 07:58:31;;;;;;;10.57;7.13;;;16.10;99.90;;;;;;5074717;28;20916;-80
2022/05/01 08:01:01;;;;;;;11.07;6.50;;;15.80;99.90;;;;;;5059247;28;20439;-78
2022/05/01 08:06:37;;;;;;;15.73;7.10;;;15.50;99.90;;;;;;5074470;28;20804;-80
2022/05/01 08:09:08;;;;;;;13.27;7.10;;;15.60;99.90;;;;;;5075088;28;20889;-76
2022/05/01 08:11:38;;;;;;;10.10;4.87;;;15.90;99.90;;;;;;5074415;28;20492;-74
2022/05/01 08:14:04;;;;;;;16.03;7.40;;;16.10;99.90;;;;;;5074995;28;21011;-75
2022/05/01 08:16:32;;;;;;;8.50;6.57;;;16.30;99.90;;;;;;5066447;28;20385;-75
2022/05/01 08:21:42;;;;;;;11.27;7.53;;;16.60;99.90;;;;;;5068098;28;20417;-75
2022/05/01 08:24:08;;;;;;;9.50;6.70;;;16.60;99.90;;;;;;5061311;28;20417;-75
2022/05/01 08:26:34;;;;;;;10.27;6.10;;;16.70;99.90;;;;;;5072920;28;20233;-68
2022/05/01 08:29:01;;;;;;;9.50;6.47;;;16.70;99.90;;;;;;5069905;28;20591;-68
2022/05/01 08:31:27;;;;;;;13.17;8.43;;;16.80;99.90;;;;;;5066401;28;20498;-68
2022/05/01 08:33:54;;;;;;;13.70;7.73;;;17.00;99.90;;;;;;5073715;28;20393;-68
2022/05/01 08:36:21;;;;;;;11.03;6.60;;;17.20;99.90;;;;;;5072924;28;20422;-75
2022/05/01 08:38:47;;;;;;;8.73;6.90;;;17.30;99.90;;;;;;5071394;28;20877;-75
2022/05/01 08:41:13;;;;;;;11.40;7.10;;;17.50;99.90;;;;;;5072443;28;20494;-75
2022/05/01 08:43:39;;;;;;;11.97;7.33;;;17.70;99.90;;;;;;5068794;28;20200;-75
2022/05/01 08:46:08;;;;;;;10.50;6.60;;;17.80;99.90;;;;;;5058620;28;20516;-74
2022/05/01 08:49:06;;;;;;;9.10;7.27;;;17.80;99.90;;;;;;5053431;28;20464;-75
2022/05/01 08:51:37;;;;;;;9.63;6.73;;;17.90;99.90;;;;;;4993163;28;20434;-75
2022/05/01 08:54:16;;;;;;;9.20;6.63;;;18.20;99.90;;;;;;5002891;28;20477;-74
2022/05/01 08:56:45;;;;;;;10.03;6.00;;;18.30;99.90;;;;;;4996252;28;20784;-74
2022/05/01 08:59:15;;;;;;;12.30;6.23;;;18.60;99.90;;;;;;4992523;28;20432;-75
2022/05/01 09:01:52;;;;;;;6.70;5.70;;;18.90;99.90;;;;;;5003840;28;20435;-75
2022/05/01 09:04:19;;;;;;;10.10;6.70;;;19.00;99.90;;;;;;4994707;28;20436;-75
2022/05/01 09:06:46;;;;;;;14.80;7.43;;;19.20;99.90;;;;;;4993424;28;20439;-74
2022/05/01 09:09:17;;;;;;;10.97;7.40;;;19.20;99.90;;;;;;5004447;28;20981;-75
2022/05/01 09:14:32;;;;;;;12.07;7.43;;;19.20;99.90;;;;;;5009249;28;20443;-75
2022/05/01 09:17:19;;;;;;;16.63;7.70;;;19.40;99.90;;;;;;4998346;28;20776;-75
2022/05/01 09:19:51;;;;;;;8.50;7.20;;;19.60;99.90;;;;;;4999185;28;20786;-75
2022/05/01 09:22:26;;;;;;;14.20;7.43;;;19.60;99.90;;;;;;4991355;28;21091;-75
2022/05/01 09:25:29;;;;;;;9.13;6.80;;;19.40;99.90;;;;;;5011681;28;20420;-76
2022/05/01 09:28:19;;;;;;;20.53;8.17;;;19.40;99.90;;;;;;4991616;28;20808;-77
2022/05/01 09:30:50;;;;;;;11.30;7.70;;;19.40;99.90;;;;;;5022713;28;20536;-77
2022/05/01 09:33:32;;;;;;;9.57;7.30;;;19.50;99.90;;;;;;5044954;28;20917;-77
2022/05/01 09:36:36;;;;;;;12.77;7.70;;;19.70;99.90;;;;;;5039562;28;20469;-77
2022/05/01 09:39:18;;;;;;;11.50;8.23;;;19.80;99.90;;;;;;5042002;28;20540;-79
2022/05/01 09:42:25;;;;;;;11.03;8.27;;;19.80;99.90;;;;;;5031744;28;20553;-78
2022/05/01 09:45:15;;;;;;;12.37;8.17;;;19.90;99.90;;;;;;4973386;28;20468;-77
2022/05/01 09:47:45;;;;;;;13.33;8.50;;;19.90;99.90;;;;;;4982173;28;20461;-77
2022/05/01 09:50:47;;;;;;;12.93;8.90;;;19.70;99.90;;;;;;4991949;28;20461;-77
2022/05/01 09:53:14;;;;;;;17.00;8.63;;;19.50;99.90;;;;;;4929675;29;20529;-78
2022/05/01 09:55:40;;;;;;;19.87;8.97;;;19.30;99.90;;;;;;4915156;29;20432;-78
2022/05/01 09:58:11;;;;;;;10.67;8.27;;;18.70;99.90;;;;;;4914767;29;20443;-78
2022/05/01 10:00:46;;;;;;;12.67;8.60;;;18.80;99.90;;;;;;4899113;29;20444;-78
2022/05/01 10:03:28;;;;;;;18.60;8.77;;;18.80;99.90;;;;;;4927821;29;20482;-77
2022/05/01 10:06:04;;;;;;;14.70;9.00;;;18.90;99.90;;;;;;4929602;29;20435;-78
2022/05/01 10:08:31;;;;;;;14.43;8.53;;;18.90;99.90;;;;;;4925194;29;20466;-72
2022/05/01 10:10:59;;;;;;;12.40;8.77;;;19.00;99.90;;;;;;4933006;29;20971;-71
2022/05/01 10:13:26;;;;;;;10.67;8.00;;;19.40;99.90;;;;;;4938913;29;20434;-72
2022/05/01 10:15:53;;;;;;;11.27;8.37;;;19.70;99.90;;;;;;4924630;29;20419;-72
2022/05/01 10:18:25;;;;;;;13.40;9.07;;;19.90;99.90;;;;;;4954308;28;20443;-76
2022/05/01 10:20:51;;;;;;;12.80;8.50;;;20.20;99.90;;;;;;4992767;28;20762;-70
2022/05/01 10:23:16;;;;;;;20.40;8.27;;;20.60;99.90;;;;;;4989943;28;20426;-71
2022/05/01 10:25:52;;;;;;;13.37;8.90;;;20.90;99.90;;;;;;4997729;28;20835;-69
2022/05/01 10:28:50;;;;;;;12.40;8.90;;;21.10;99.90;;;;;;5065079;28;20663;-69
2022/05/01 10:35:07;;;;;;;12.50;8.53;;;20.60;99.90;;;;;;4993964;28;20952;-69
2022/05/01 10:37:51;;;;;;;14.20;9.03;;;20.50;99.90;;;;;;4990145;28;20450;-74
2022/05/01 10:40:18;;;;;;;12.70;8.73;;;20.70;99.90;;;;;;4994556;28;20488;-74
2022/05/01 10:42:49;;;;;;;22.90;9.07;;;20.70;99.90;;;;;;4991813;28;20477;-72
2022/05/01 10:45:25;;;;;;;13.37;9.23;;;20.80;99.90;;;;;;4993737;28;20514;-74
2022/05/01 10:47:52;;;;;;;12.60;8.73;;;20.90;99.90;;;;;;4991738;28;20449;-73
2022/05/01 10:50:26;;;;;;;13.60;9.40;;;20.90;99.90;;;;;;4978449;28;20495;-73
2022/05/01 10:53:06;;;;;;;16.00;8.90;;;20.50;99.90;;;;;;4967134;28;20428;-73
2022/05/01 10:56:14;;;;;;;15.90;9.27;;;20.60;99.90;;;;;;4985991;28;20420;-72
2022/05/01 10:58:40;;;;;;;20.17;8.80;;;20.60;99.90;;;;;;4994538;28;20469;-75
2022/05/01 11:01:08;;;;;;;13.33;8.10;;;20.80;99.90;;;;;;4994437;28;20430;-75
2022/05/01 11:03:56;;;;;;;13.90;8.60;;;21.20;99.90;;;;;;4994440;28;20434;-78
2022/05/01 11:06:22;;;;;;;21.57;8.40;;;21.30;99.90;;;;;;5000861;28;20433;-78
2022/05/01 11:08:52;;;;;;;19.63;9.20;;;21.60;99.90;;;;;;5069478;28;20467;-77
2022/05/01 11:11:21;;;;;;;19.43;9.37;;;21.90;99.90;;;;;;5076027;28;20431;-75
2022/05/01 11:13:47;;;;;;;13.40;9.30;;;22.30;99.90;;;;;;5075002;28;20532;-80
2022/05/01 11:16:13;;;;;;;14.37;9.30;;;22.30;99.90;;;;;;5069659;28;20475;-76
2022/05/01 11:18:39;;;;;;;12.50;8.77;;;22.30;99.90;;;;;;5069773;28;20424;-76
2022/05/01 11:21:20;;;;;;;11.10;8.67;;;21.90;99.90;;;;;;5072582;28;20175;-75
2022/05/01 11:23:56;;;;;;;12.37;8.60;;;22.30;99.90;;;;;;5071896;28;20462;-75
2022/05/01 11:26:22;;;;;;;15.10;8.07;;;22.50;99.90;;;;;;5070922;28;20465;-75
2022/05/01 11:28:49;;;;;;;20.43;8.63;;;22.30;99.90;;;;;;5059030;28;20954;-75
2022/05/01 11:31:37;;;;;;;10.30;8.17;;;22.40;99.90;;;;;;5059020;28;20219;-75
2022/05/01 11:34:22;;;;;;;11.23;8.40;;;22.30;99.90;;;;;;5063056;28;20439;-75
2022/05/01 11:36:53;;;;;;;10.33;8.13;;;22.00;99.90;;;;;;5068239;28;20480;-75
2022/05/01 11:39:19;;;;;;;15.10;8.83;;;22.00;99.90;;;;;;5054262;28;20433;-75
2022/05/01 11:41:47;;;;;;;15.67;8.90;;;21.80;99.90;;;;;;5072090;28;20417;-75
2022/05/01 11:44:20;;;;;;;13.47;9.70;;;21.60;99.90;;;;;;5073130;28;20418;-76
2022/05/01 11:47:05;;;;;;;17.40;10.00;;;21.50;99.90;;;;;;5067127;28;20443;-76
2022/05/01 11:49:39;;;;;;;12.93;8.77;;;21.50;99.90;;;;;;5073287;28;20958;-76
2022/05/01 11:52:06;;;;;;;22.00;9.20;;;21.50;99.90;;;;;;5062800;28;20450;-76
2022/05/01 11:54:33;;;;;;;15.80;9.33;;;21.40;99.90;;;;;;5067330;28;20459;-76
2022/05/01 12:02:31;;;;;;;15.20;9.73;;;21.30;99.90;;;;;;5062904;28;20399;-76
2022/05/01 12:05:04;;;;;;;18.13;10.07;;;21.60;99.90;;;;;;5073238;28;20417;-76
2022/05/01 12:07:30;;;;;;;15.77;10.20;;;21.90;99.90;;;;;;5073366;28;20818;-76
2022/05/01 12:09:56;;;;;;;15.77;10.27;;;21.80;99.90;;;;;;5074468;28;20941;-75
2022/05/01 12:12:32;;;;;;;18.17;9.90;;;21.80;99.90;;;;;;5074714;28;20501;-76
2022/05/01 12:15:04;;;;;;;14.27;9.43;;;22.00;99.90;;;;;;5072976;28;20944;-76
2022/05/01 12:17:39;;;;;;;11.13;8.67;;;22.30;99.90;;;;;;5074549;28;20478;-76
2022/05/01 12:20:05;;;;;;;19.00;8.40;;;22.30;99.90;;;;;;5074691;28;20406;-76
2022/05/01 12:22:38;;;;;;;11.83;8.37;;;22.40;99.90;;;;;;5067345;28;20946;-76
2022/05/01 12:25:10;;;;;;;10.90;7.87;;;22.40;99.90;;;;;;5060624;28;20427;-75
2022/05/01 12:27:40;;;;;;;14.23;8.90;;;22.70;99.90;;;;;;5069811;28;20457;-78
2022/05/01 12:30:08;;;;;;;14.17;9.10;;;22.70;99.90;;;;;;5069443;28;20469;-76
2022/05/01 12:32:35;;;;;;;15.73;9.13;;;22.80;99.90;;;;;;5072342;28;20419;-76
2022/05/01 12:35:04;;;;;;;15.77;8.60;;;22.70;99.90;;;;;;5071911;28;20856;-76
2022/05/01 12:37:50;;;;;;;22.67;8.83;;;22.70;99.90;;;;;;5072681;28;20483;-78
2022/05/01 12:46:26;;;;;;;13.53;9.33;;;22.60;99.90;;;;;;5072862;28;21053;-77
2022/05/01 12:48:52;;;;;;;12.70;9.10;;;22.80;99.90;;;;;;5063127;28;20456;-77
2022/05/01 12:51:20;;;;;;;15.23;9.00;;;22.60;99.90;;;;;;5073611;28;20484;-78
2022/05/01 12:54:09;;;;;;;12.80;9.17;;;22.60;99.90;;;;;;5073522;28;20868;-77
2022/05/01 12:56:50;;;;;;;13.23;8.60;;;22.70;99.90;;;;;;5073840;28;20554;-77
2022/05/01 12:59:38;;;;;;;11.47;8.43;;;22.80;99.90;;;;;;5074026;28;20428;-77
2022/05/01 13:02:04;;;;;;;19.83;9.50;;;22.80;99.90;;;;;;5073482;28;20413;-76
2022/05/01 13:04:38;;;;;;;14.93;9.50;;;22.70;99.90;;;;;;5073096;28;20487;-77
2022/05/01 13:07:04;;;;;;;11.07;8.27;;;22.70;99.90;;;;;;5072186;28;20188;-75
2022/05/01 13:09:49;;;;;;;13.57;8.83;;;22.60;99.90;;;;;;5073543;28;21034;-75
2022/05/01 13:12:15;;;;;;;14.87;9.77;;;22.50;99.90;;;;;;5073847;28;20200;-75
2022/05/01 13:15:11;;;;;;;16.80;9.60;;;22.40;99.90;;;;;;5073361;28;20496;-76
2022/05/01 13:17:37;;;;;;;13.83;8.80;;;22.20;99.90;;;;;;4993800;28;20440;-75
2022/05/01 13:20:08;;;;;;;21.53;9.93;;;22.40;99.90;;;;;;5002866;28;20836;-76
2022/05/01 13:22:34;;;;;;;15.90;9.27;;;22.50;99.90;;;;;;5011423;28;20250;-78
2022/05/01 13:25:01;;;;;;;14.30;8.50;;;22.60;99.90;;;;;;4995011;28;20858;-75
2022/05/01 13:27:38;;;;;;;10.13;7.33;;;22.70;99.90;;;;;;5011384;28;20269;-81
2022/05/01 13:30:44;;;;;;;23.23;9.73;;;22.80;99.90;;;;;;4994196;28;20541;-82
2022/05/01 13:33:26;;;;;;;12.30;8.00;;;22.70;99.90;;;;;;5011254;28;20460;-80
2022/05/01 13:39:14;;;;;;;13.03;7.80;;;23.00;99.90;;;;;;5000672;28;20408;-82
2022/05/01 13:47:10;;;;;;;13.70;8.03;;;23.30;99.90;;;;;;5001073;28;20966;-73
2022/05/01 13:49:50;;;;;;;16.77;7.00;;;23.50;99.90;;;;;;5008452;28;20954;-77
2022/05/01 13:52:17;;;;;;;15.93;7.80;;;23.60;99.90;;;;;;5011050;28;20443;-75
2022/05/01 13:54:45;;;;;;;13.50;8.87;;;23.60;99.90;;;;;;5050043;28;20519;-76
2022/05/01 13:57:11;;;;;;;12.80;7.47;;;23.40;99.90;;;;;;5074653;28;20440;-76
2022/05/01 13:59:37;;;;;;;10.63;7.27;;;23.30;99.90;;;;;;5068056;28;20438;-75
2022/05/01 14:02:04;;;;;;;9.80;7.40;;;23.20;99.90;;;;;;5065905;28;20183;-75
2022/05/01 14:04:30;;;;;;;15.37;7.97;;;23.10;99.90;;;;;;5076380;28;20210;-75
2022/05/01 14:06:56;;;;;;;11.40;7.57;;;22.90;99.90;;;;;;5066820;28;20436;-75
2022/05/01 14:09:32;;;;;;;10.50;7.07;;;22.40;99.90;;;;;;5075238;28;20273;-75
2022/05/01 14:11:58;;;;;;;10.73;7.53;;;22.30;99.90;;;;;;5065475;28;20980;-75
2022/05/01 14:14:24;;;;;;;14.63;8.30;;;21.90;99.90;;;;;;5074873;28;20486;-75